Time;durP1;ratioP1;P1;durP2;ratioP2;P2;SDS_P1;SDS_P2;PMS_P1;PMS_P2;Temp;Humidity;BMP_temperature;BMP_pressure;BME280_temperature;BME280_humidity;BME280_pressure;Samples;Min_cycle;Max_cycle;Signal;HPM_P1;HPM_P2
2023/12/22 00:01:28;;;;;;;10.30;1.30;;;;;;;6.69;72.48;98196.59;5021844;27;100897;-72
2023/12/22 00:03:56;;;;;;;11.63;2.38;;;;;;;6.22;72.75;98190.69;5032860;27;99850;-73
2023/12/22 00:06:23;;;;;;;10.32;1.92;;;;;;;6.30;73.53;98209.44;5035359;27;99360;-72
2023/12/22 00:08:50;;;;;;;11.88;2.45;;;;;;;6.27;72.33;98206.97;5042743;27;96711;-72
2023/12/22 00:11:18;;;;;;;8.40;1.30;;;;;;;6.44;72.45;98205.97;5033373;27;96717;-70
2023/12/22 00:13:47;;;;;;;10.50;1.40;;;;;;;6.19;74.04;98232.78;5028548;27;99559;-70
2023/12/22 00:16:17;;;;;;;19.60;2.00;;;;;;;6.20;72.40;98197.78;5027294;27;100187;-70
2023/12/22 00:18:43;;;;;;;9.38;1.35;;;;;;;6.40;71.87;98235.03;5032097;27;97359;-70
2023/12/22 00:21:13;;;;;;;20.95;2.30;;;;;;;6.87;69.59;98241.03;5017413;27;96861;-72
2023/12/22 00:23:41;;;;;;;11.38;2.47;;;;;;;6.74;69.30;98238.28;5036227;27;102097;-70
2023/12/22 00:26:08;;;;;;;20.17;1.92;;;;;;;6.96;68.68;98241.31;5025733;27;100888;-70
2023/12/22 00:28:36;;;;;;;14.95;2.30;;;;;;;6.94;67.32;98247.59;5032547;27;97079;-72
2023/12/22 00:31:04;;;;;;;17.25;2.20;;;;;;;6.64;67.61;98247.63;5028217;27;97314;-71
2023/12/22 00:33:33;;;;;;;18.75;2.95;;;;;;;6.73;67.58;98250.56;5042664;27;98016;-71
2023/12/22 00:35:59;;;;;;;16.00;2.30;;;;;;;6.66;67.79;98269.38;5031951;27;100835;-71
2023/12/22 00:38:26;;;;;;;13.52;2.53;;;;;;;6.72;66.42;98256.75;5017806;27;96980;-69
2023/12/22 00:40:56;;;;;;;14.30;2.30;;;;;;;6.51;67.99;98268.50;5029461;27;97141;-70
2023/12/22 00:43:25;;;;;;;18.05;2.78;;;;;;;7.19;66.32;98280.16;5030478;27;98924;-69
2023/12/22 00:45:53;;;;;;;16.80;2.25;;;;;;;7.01;66.77;98272.56;5030183;27;98775;-70
2023/12/22 00:48:20;;;;;;;20.30;1.77;;;;;;;6.48;68.66;98278.34;5024905;27;96826;-69
2023/12/22 00:50:47;;;;;;;18.58;2.90;;;;;;;6.93;68.77;98290.53;5019158;27;96883;-69
2023/12/22 00:53:14;;;;;;;19.05;2.60;;;;;;;7.19;67.14;98300.31;5038773;27;98919;-70
2023/12/22 00:55:52;;;;;;;18.27;2.20;;;;;;;6.80;69.66;98307.03;5020947;27;97905;-69
2023/12/22 00:58:19;;;;;;;9.52;2.90;;;;;;;6.74;69.16;98307.38;5018084;27;97000;-70
2023/12/22 01:00:46;;;;;;;13.73;2.03;;;;;;;6.55;71.39;98298.88;5023215;27;96820;-71
2023/12/22 01:03:14;;;;;;;13.75;2.25;;;;;;;6.30;72.35;98306.47;5020566;27;98484;-70
2023/12/22 01:05:40;;;;;;;10.80;1.67;;;;;;;6.19;73.02;98320.16;5035850;27;97673;-70
2023/12/22 01:08:07;;;;;;;16.17;1.92;;;;;;;6.21;73.93;98325.34;5031495;27;96801;-70
2023/12/22 01:10:33;;;;;;;15.38;2.05;;;;;;;6.46;73.50;98327.41;5023592;27;97185;-71
2023/12/22 01:12:59;;;;;;;10.27;1.80;;;;;;;6.70;72.52;98337.34;5028944;27;99080;-70
2023/12/22 01:15:26;;;;;;;11.45;1.55;;;;;;;6.49;74.48;98343.00;5029809;27;99194;-70
2023/12/22 01:17:52;;;;;;;19.80;2.60;;;;;;;6.94;73.26;98352.63;5018252;27;97084;-71
2023/12/22 01:20:20;;;;;;;14.15;2.72;;;;;;;6.73;74.22;98358.19;5025599;27;96723;-69
2023/12/22 01:22:47;;;;;;;11.30;1.95;;;;;;;6.26;76.79;98354.78;5027712;27;99440;-70
2023/12/22 01:25:13;;;;;;;14.05;2.80;;;;;;;5.88;78.99;98343.78;5022011;27;99346;-71
2023/12/22 01:27:39;;;;;;;11.77;1.60;;;;;;;6.25;77.56;98353.06;5021119;27;96772;-70
2023/12/22 01:30:07;;;;;;;9.30;1.77;;;;;;;6.42;77.55;98346.91;5030020;27;98985;-70
2023/12/22 01:32:36;;;;;;;16.85;2.13;;;;;;;6.66;76.48;98363.84;5020734;27;98888;-70
2023/12/22 01:35:06;;;;;;;13.90;2.17;;;;;;;6.41;77.02;98359.16;5029142;27;98848;-70
2023/12/22 01:37:34;;;;;;;12.23;2.17;;;;;;;6.36;77.35;98362.06;5036116;27;99932;-70
2023/12/22 01:40:00;;;;;;;10.85;2.03;;;;;;;6.70;76.83;98363.59;5041179;27;97164;-70
2023/12/22 01:42:27;;;;;;;9.98;2.10;;;;;;;6.79;75.46;98357.81;5026183;27;97882;-71
2023/12/22 01:44:53;;;;;;;15.23;3.35;;;;;;;6.76;75.70;98367.66;5037319;27;97797;-70
2023/12/22 01:47:20;;;;;;;13.98;2.13;;;;;;;6.12;78.60;98373.88;5032634;27;96631;-69
2023/12/22 01:49:46;;;;;;;11.20;2.03;;;;;;;6.75;76.80;98372.06;5030141;27;98079;-70
2023/12/22 01:52:13;;;;;;;14.45;2.15;;;;;;;7.05;75.37;98379.94;5022358;27;99223;-69
2023/12/22 01:54:41;;;;;;;18.00;2.47;;;;;;;6.60;76.78;98377.34;5027554;27;101412;-70
2023/12/22 01:57:08;;;;;;;15.45;2.15;;;;;;;6.34;78.63;98382.28;5030698;27;97377;-70
2023/12/22 01:59:35;;;;;;;20.85;3.20;;;;;;;6.94;76.05;98384.97;5019792;27;96725;-70
2023/12/22 02:02:02;;;;;;;14.50;2.22;;;;;;;6.80;75.77;98375.25;5030226;27;99062;-70
2023/12/22 02:04:31;;;;;;;16.08;2.08;;;;;;;6.91;76.00;98384.28;5036982;27;99234;-69
2023/12/22 02:06:59;;;;;;;6.20;1.23;;;;;;;6.76;75.67;98384.22;5020653;27;98203;-69
2023/12/22 02:09:26;;;;;;;20.35;2.63;;;;;;;7.17;74.37;98396.75;5021817;27;98963;-69
2023/12/22 02:11:53;;;;;;;16.95;2.40;;;;;;;6.92;75.26;98410.47;5042506;27;101792;-69
2023/12/22 02:14:21;;;;;;;15.38;2.00;;;;;;;6.92;74.25;98393.84;5032011;27;98750;-69
2023/12/22 02:16:52;;;;;;;13.93;1.95;;;;;;;6.56;77.01;98402.91;5035932;27;96910;-69
2023/12/22 02:19:28;;;;;;;11.95;2.83;;;;;;;6.16;78.68;98393.78;5027641;27;98335;-69
2023/12/22 02:22:02;;;;;;;16.27;1.85;;;;;;;6.09;80.61;98387.19;5030621;27;97717;-70
2023/12/22 02:24:30;;;;;;;10.82;1.90;;;;;;;6.16;80.41;98387.69;5029586;27;99436;-69
2023/12/22 02:27:04;;;;;;;12.13;1.90;;;;;;;6.14;80.46;98379.06;5042060;27;96863;-70
2023/12/22 02:29:32;;;;;;;16.55;1.95;;;;;;;5.85;81.74;98368.34;5026618;27;96875;-71
2023/12/22 02:32:03;;;;;;;8.73;1.60;;;;;;;5.64;83.80;98381.75;5030373;27;97833;-70
2023/12/22 02:34:32;;;;;;;14.63;1.73;;;;;;;5.79;83.35;98391.41;5028674;27;98833;-70
2023/12/22 02:36:59;;;;;;;19.10;2.58;;;;;;;5.98;82.83;98392.13;5033654;27;97297;-70
2023/12/22 02:39:25;;;;;;;13.13;2.10;;;;;;;6.08;81.42;98387.25;5040586;27;96735;-70
2023/12/22 02:41:53;;;;;;;13.00;1.85;;;;;;;5.76;82.07;98374.09;5042581;27;98893;-70
2023/12/22 02:44:20;;;;;;;12.07;2.55;;;;;;;5.83;82.65;98364.13;5043482;27;97879;-70
2023/12/22 02:46:47;;;;;;;14.18;2.40;;;;;;;6.03;81.38;98390.13;5044387;27;99488;-71
2023/12/22 02:49:13;;;;;;;14.02;1.80;;;;;;;6.32;79.86;98396.38;5045206;27;97192;-71
2023/12/22 02:51:40;;;;;;;7.13;1.55;;;;;;;5.91;80.76;98388.16;5030745;27;99164;-70
2023/12/22 02:54:06;;;;;;;12.27;1.55;;;;;;;6.02;80.19;98383.19;5028259;27;99257;-70
2023/12/22 02:56:32;;;;;;;10.60;2.22;;;;;;;6.28;78.56;98393.09;5031776;27;97254;-70
2023/12/22 02:59:00;;;;;;;8.63;1.45;;;;;;;6.00;80.18;98388.50;5019466;27;96721;-70
2023/12/22 03:01:27;;;;;;;8.43;1.63;;;;;;;6.04;80.45;98404.09;5014094;27;98932;-69
2023/12/22 03:03:53;;;;;;;11.00;1.55;;;;;;;6.11;79.76;98384.44;5024635;27;99166;-69
2023/12/22 03:06:20;;;;;;;16.25;2.35;;;;;;;6.06;80.53;98386.47;5029222;27;96960;-70
2023/12/22 03:08:46;;;;;;;14.85;1.13;;;;;;;5.70;81.84;98373.56;5016885;27;96854;-70
2023/12/22 03:11:12;;;;;;;6.07;1.50;;;;;;;5.49;83.05;98379.00;5024814;27;101800;-70
2023/12/22 03:13:39;;;;;;;9.05;1.35;;;;;;;5.49;83.16;98391.25;5024165;27;99851;-69
2023/12/22 03:16:10;;;;;;;8.48;1.40;;;;;;;5.60;83.71;98394.16;5029358;27;96859;-69
2023/12/22 03:18:38;;;;;;;10.80;1.13;;;;;;;5.83;83.35;98391.19;5026194;27;96785;-70
2023/12/22 03:21:05;;;;;;;11.70;1.40;;;;;;;6.11;81.14;98384.44;5023720;27;99348;-70
2023/12/22 03:23:31;;;;;;;4.20;1.13;;;;;;;6.03;80.40;98370.94;5031139;27;98753;-70
2023/12/22 03:25:57;;;;;;;5.90;1.15;;;;;;;5.72;82.91;98408.38;5022467;27;97298;-70
2023/12/22 03:28:24;;;;;;;9.85;1.65;;;;;;;5.25;84.93;98371.59;5025115;27;98459;-70
2023/12/22 03:30:50;;;;;;;10.25;2.13;;;;;;;5.33;85.41;98391.19;5030896;27;99253;-69
2023/12/22 03:33:18;;;;;;;10.57;1.00;;;;;;;5.28;86.18;98384.50;5032336;27;100899;-70
2023/12/22 03:35:44;;;;;;;11.07;1.50;;;;;;;5.59;84.56;98387.22;5025926;27;96830;-70
2023/12/22 03:38:11;;;;;;;8.70;1.33;;;;;;;5.57;84.63;98376.00;5032287;27;96677;-70
2023/12/22 03:40:38;;;;;;;11.43;1.75;;;;;;;5.57;84.00;98383.84;5025787;27;98981;-69
2023/12/22 03:43:04;;;;;;;11.85;1.60;;;;;;;6.03;82.47;98391.91;5030848;27;101202;-70
2023/12/22 03:45:30;;;;;;;11.88;1.40;;;;;;;5.82;82.88;98397.34;5029178;27;97763;-70
2023/12/22 03:47:57;;;;;;;9.32;1.60;;;;;;;5.56;83.93;98387.38;5029874;27;96821;-69
2023/12/22 03:50:24;;;;;;;15.23;2.30;;;;;;;5.54;83.59;98397.09;5025836;27;98964;-70
2023/12/22 03:52:51;;;;;;;9.05;1.45;;;;;;;5.43;84.72;98388.97;5029827;27;101392;-70
2023/12/22 03:55:18;;;;;;;10.50;1.05;;;;;;;5.37;85.06;98403.22;5029923;27;97071;-70
2023/12/22 03:57:44;;;;;;;8.65;1.38;;;;;;;5.17;84.94;98395.53;5022138;27;96813;-70
2023/12/22 04:00:13;;;;;;;7.90;0.98;;;;;;;5.55;84.74;98391.78;5033157;27;98827;-70
2023/12/22 04:02:40;;;;;;;7.68;1.50;;;;;;;5.80;83.28;98407.06;5028230;27;98752;-70
2023/12/22 04:05:07;;;;;;;8.32;1.38;;;;;;;5.87;83.15;98402.31;5028914;27;96826;-70
2023/12/22 04:07:36;;;;;;;5.88;0.68;;;;;;;5.88;82.62;98409.31;5029296;27;97075;-70
2023/12/22 04:10:02;;;;;;;7.28;0.60;;;;;;;5.87;82.96;98403.22;5023040;27;98965;-70
2023/12/22 04:12:29;;;;;;;4.72;1.40;;;;;;;6.19;82.15;98401.47;5028137;27;99914;-70
2023/12/22 04:14:55;;;;;;;4.07;0.60;;;;;;;6.46;81.68;98416.63;5024306;27;97880;-69
2023/12/22 04:17:22;;;;;;;5.13;0.80;;;;;;;6.03;82.51;98408.50;5040976;27;96848;-71
2023/12/22 04:19:50;;;;;;;5.10;0.52;;;;;;;5.78;85.87;98413.28;5027517;27;99879;-71
2023/12/22 04:22:17;;;;;;;3.47;0.50;;;;;;;5.67;86.33;98400.75;5022875;27;103462;-71
2023/12/22 04:24:44;;;;;;;1.90;0.40;;;;;;;6.06;85.21;98404.84;5026932;27;96814;-71
2023/12/22 04:27:11;;;;;;;5.90;0.60;;;;;;;5.55;88.28;98390.94;5031017;27;97150;-71
2023/12/22 04:29:37;;;;;;;2.90;0.50;;;;;;;5.80;87.31;98386.09;5029407;27;98845;-69
2023/12/22 04:32:07;;;;;;;6.78;0.68;;;;;;;5.35;88.82;98389.34;5017530;27;98127;-70
2023/12/22 04:34:33;;;;;;;5.40;1.00;;;;;;;5.53;88.55;98390.16;5029681;27;96772;-71
2023/12/22 04:36:59;;;;;;;4.20;0.43;;;;;;;5.78;88.75;98398.41;5022505;27;96766;-70
2023/12/22 04:39:26;;;;;;;4.95;0.75;;;;;;;5.91;87.83;98396.88;5028295;27;97610;-70
2023/12/22 04:41:54;;;;;;;7.53;0.80;;;;;;;5.94;86.84;98393.25;5026093;27;98776;-70
2023/12/22 04:44:20;;;;;;;3.72;0.60;;;;;;;5.89;86.43;98395.28;5029773;27;96881;-70
2023/12/22 04:46:47;;;;;;;7.88;1.10;;;;;;;5.30;90.24;98391.38;5026821;27;97011;-69
2023/12/22 04:49:13;;;;;;;1.60;0.57;;;;;;;5.64;87.77;98393.09;5027261;28;99237;-70
2023/12/22 04:51:39;;;;;;;6.38;0.70;;;;;;;5.75;88.57;98393.34;5023751;27;97594;-70
2023/12/22 04:54:06;;;;;;;7.97;0.80;;;;;;;5.41;89.55;98391.66;5030238;27;96723;-70
2023/12/22 04:56:33;;;;;;;4.10;0.90;;;;;;;5.78;88.72;98398.41;5026513;27;97200;-70
2023/12/22 04:59:00;;;;;;;7.18;1.02;;;;;;;6.30;86.55;98416.63;5028825;27;100757;-70
2023/12/22 05:01:27;;;;;;;7.72;1.02;;;;;;;6.90;83.46;98420.19;5029725;27;100932;-70
2023/12/22 05:03:54;;;;;;;4.45;0.60;;;;;;;6.23;86.70;98421.38;5027481;27;97764;-69
2023/12/22 05:06:20;;;;;;;4.65;0.75;;;;;;;5.86;89.49;98416.34;5030594;28;96647;-70
2023/12/22 05:08:47;;;;;;;5.95;0.70;;;;;;;5.67;90.58;98413.88;5028705;27;99377;-70
2023/12/22 05:11:13;;;;;;;3.40;0.70;;;;;;;5.48;92.13;98416.59;5029956;27;98074;-71
2023/12/22 05:13:44;;;;;;;4.13;0.50;;;;;;;5.15;93.54;98403.47;5028935;27;97281;-72
2023/12/22 05:16:12;;;;;;;1.58;0.25;;;;;;;5.05;95.24;98410.09;5024659;27;97011;-69
2023/12/22 05:18:40;;;;;;;4.70;0.45;;;;;;;5.07;94.42;98396.91;5020108;27;100642;-69
2023/12/22 05:21:06;;;;;;;2.30;0.50;;;;;;;5.07;94.03;98395.13;5026790;27;97843;-69
2023/12/22 05:23:32;;;;;;;4.63;0.63;;;;;;;5.68;91.40;98389.38;5025434;27;98695;-69
2023/12/22 05:25:59;;;;;;;4.47;0.60;;;;;;;5.34;91.60;98386.81;5022906;27;96744;-69
2023/12/22 05:28:25;;;;;;;6.57;0.82;;;;;;;5.21;92.60;98374.34;5029110;27;98828;-69
2023/12/22 05:30:55;;;;;;;5.53;0.73;;;;;;;5.28;92.00;98374.03;5027737;27;98142;-70
2023/12/22 05:33:22;;;;;;;4.82;0.40;;;;;;;4.84;94.79;98392.00;5029842;27;96775;-70
2023/12/22 05:35:49;;;;;;;4.55;0.40;;;;;;;4.66;96.56;98389.34;5020726;27;100488;-70
2023/12/22 05:38:15;;;;;;;1.88;0.60;;;;;;;4.82;95.50;98399.91;5030618;27;98724;-69
2023/12/22 05:40:42;;;;;;;4.43;0.60;;;;;;;4.78;96.12;98393.13;5028568;27;101621;-70
2023/12/22 05:43:08;;;;;;;5.32;1.67;;;;;;;4.76;96.69;98389.75;5029003;27;97333;-71
2023/12/22 05:45:35;;;;;;;5.40;0.40;;;;;;;4.57;97.16;98400.25;5021042;27;97093;-71
2023/12/22 05:48:01;;;;;;;5.57;0.60;;;;;;;4.76;96.58;98394.97;5028412;27;98895;-70
2023/12/22 05:50:29;;;;;;;2.67;0.45;;;;;;;4.91;94.95;98396.00;5021243;27;98872;-70
2023/12/22 05:52:55;;;;;;;5.10;0.65;;;;;;;4.69;95.09;98409.28;5029476;27;96727;-70
2023/12/22 05:55:22;;;;;;;8.13;0.60;;;;;;;4.78;94.61;98398.38;5024393;27;97053;-71
2023/12/22 05:57:48;;;;;;;3.50;0.50;;;;;;;4.67;94.70;98395.41;5025171;27;98869;-71
2023/12/22 06:00:17;;;;;;;4.18;0.80;;;;;;;4.86;93.91;98395.38;5029164;27;98733;-71
2023/12/22 06:02:43;;;;;;;5.38;0.80;;;;;;;5.01;91.66;98390.22;5028186;27;97239;-71
2023/12/22 06:05:09;;;;;;;2.72;0.88;;;;;;;4.83;89.95;98380.66;5019844;27;97523;-71
2023/12/22 06:07:37;;;;;;;4.40;0.82;;;;;;;5.01;89.44;98405.06;5023432;27;98897;-70
2023/12/22 06:10:04;;;;;;;7.50;1.10;;;;;;;5.05;88.25;98391.78;5015822;27;99905;-70
2023/12/22 06:12:30;;;;;;;4.65;0.57;;;;;;;5.34;87.35;98418.22;5033692;27;97014;-69
2023/12/22 06:14:57;;;;;;;3.13;0.45;;;;;;;5.58;84.37;98414.34;5023744;27;97254;-70
2023/12/22 06:17:23;;;;;;;3.63;0.60;;;;;;;5.44;84.70;98411.59;5016584;27;100780;-70
2023/12/22 06:19:50;;;;;;;6.57;0.60;;;;;;;5.49;83.08;98404.34;5027129;27;98117;-70
2023/12/22 06:22:16;;;;;;;7.00;1.15;;;;;;;5.53;83.19;98404.09;5022087;27;96724;-70
2023/12/22 06:24:44;;;;;;;7.20;0.88;;;;;;;5.39;82.93;98405.72;5025418;27;98650;-70
2023/12/22 06:27:11;;;;;;;6.25;0.55;;;;;;;5.26;82.70;98415.16;5026512;27;99380;-70
2023/12/22 06:29:40;;;;;;;3.10;0.55;;;;;;;5.40;83.10;98412.69;5027258;27;101131;-70
2023/12/22 06:32:07;;;;;;;7.32;0.85;;;;;;;5.11;82.61;98398.47;5020261;27;96801;-70
2023/12/22 06:34:34;;;;;;;6.70;0.50;;;;;;;4.90;84.68;98412.63;5028989;27;96802;-70
2023/12/22 06:37:00;;;;;;;2.28;0.40;;;;;;;5.23;82.92;98403.06;5027249;27;101238;-69
2023/12/22 06:39:27;;;;;;;12.60;3.03;;;;;;;5.42;83.77;98411.69;5027354;27;97656;-69
2023/12/22 06:41:54;;;;;;;2.78;1.08;;;;;;;5.35;84.19;98414.69;5029012;27;97140;-71
2023/12/22 06:44:21;;;;;;;1.83;0.75;;;;;;;5.04;87.97;98421.47;5024778;27;97465;-70
2023/12/22 06:46:47;;;;;;;6.78;0.85;;;;;;;4.88;90.05;98407.44;5032929;27;97780;-69
2023/12/22 06:49:14;;;;;;;3.35;0.57;;;;;;;4.66;93.23;98422.53;5038443;27;99319;-69
2023/12/22 06:51:41;;;;;;;7.28;0.85;;;;;;;5.28;92.11;98418.53;5032419;27;97038;-69
2023/12/22 06:54:07;;;;;;;6.07;1.45;;;;;;;5.55;89.65;98427.59;5027975;27;97201;-69
2023/12/22 06:56:35;;;;;;;3.38;1.08;;;;;;;5.38;90.38;98422.41;5031025;27;98950;-72
2023/12/22 06:59:03;;;;;;;4.68;1.70;;;;;;;5.41;91.78;98411.75;5022711;27;99361;-72
2023/12/22 07:01:32;;;;;;;2.20;0.55;;;;;;;5.21;90.35;98426.72;5036379;27;96739;-72
2023/12/22 07:04:00;;;;;;;5.72;0.95;;;;;;;5.60;90.32;98431.69;5021637;27;96900;-72
2023/12/22 07:06:28;;;;;;;3.38;0.75;;;;;;;5.80;89.02;98453.38;5028139;27;101413;-72
2023/12/22 07:09:13;;;;;;;3.95;0.95;;;;;;;6.66;85.41;98458.34;5026867;27;96963;-72
2023/12/22 07:11:41;;;;;;;5.13;1.52;;;;;;;7.12;82.09;98449.53;5029970;27;97259;-71
2023/12/22 07:14:09;;;;;;;11.27;1.83;;;;;;;6.84;81.48;98459.91;5030767;27;97366;-70
2023/12/22 07:16:37;;;;;;;6.45;0.60;;;;;;;6.62;81.91;98470.78;5019778;27;98836;-70
2023/12/22 07:19:04;;;;;;;6.35;0.95;;;;;;;6.20;84.14;98481.84;5026388;27;99259;-70
2023/12/22 07:21:30;;;;;;;3.67;0.70;;;;;;;6.14;84.17;98474.28;5023210;27;96686;-70
2023/12/22 07:23:58;;;;;;;11.02;3.35;;;;;;;6.24;84.51;98490.38;5027388;27;96777;-70
2023/12/22 07:26:26;;;;;;;2.53;0.73;;;;;;;5.94;84.79;98483.22;5020430;27;98931;-70
2023/12/22 07:28:52;;;;;;;5.35;0.90;;;;;;;6.24;84.14;98479.88;5024318;27;97958;-70
2023/12/22 07:31:20;;;;;;;8.05;0.90;;;;;;;6.40;82.73;98480.75;5028579;27;96756;-70
2023/12/22 07:33:47;;;;;;;5.72;0.88;;;;;;;6.15;82.38;98485.63;5030963;27;100586;-69
2023/12/22 07:36:14;;;;;;;7.43;0.93;;;;;;;6.21;82.67;98473.03;5026918;27;100648;-70
2023/12/22 07:38:40;;;;;;;12.90;1.25;;;;;;;5.94;82.36;98458.78;5030490;27;100750;-70
2023/12/22 07:41:07;;;;;;;6.25;0.70;;;;;;;5.82;83.15;98478.59;5027403;27;96803;-70
2023/12/22 07:43:33;;;;;;;6.45;0.95;;;;;;;5.71;82.99;98475.66;5029933;27;96773;-70
2023/12/22 07:46:00;;;;;;;6.72;0.52;;;;;;;5.28;84.02;98478.78;5026856;27;98772;-69
2023/12/22 07:48:28;;;;;;;11.55;0.60;;;;;;;5.09;86.19;98476.22;5028691;27;98745;-69
2023/12/22 07:50:54;;;;;;;6.97;0.88;;;;;;;4.94;87.01;98476.97;5026977;27;98855;-70
2023/12/22 07:53:21;;;;;;;9.00;1.27;;;;;;;5.20;85.93;98476.53;5025523;27;98540;-70
2023/12/22 07:55:48;;;;;;;2.97;1.17;;;;;;;5.36;84.51;98487.09;5027805;27;98942;-70
2023/12/22 07:58:14;;;;;;;3.97;0.95;;;;;;;5.59;83.59;98492.00;5027347;27;98089;-71
2023/12/22 08:00:41;;;;;;;6.53;1.20;;;;;;;5.08;84.31;98493.69;5014532;27;96729;-69
2023/12/22 08:03:07;;;;;;;5.32;1.23;;;;;;;4.98;86.05;98481.13;5016923;27;97956;-68
2023/12/22 08:05:35;;;;;;;3.70;0.80;;;;;;;4.96;86.03;98486.44;5024906;27;98982;-68
2023/12/22 08:08:03;;;;;;;4.90;0.80;;;;;;;4.76;85.97;98478.69;5024396;27;99311;-68
2023/12/22 08:10:30;;;;;;;10.60;1.00;;;;;;;5.11;84.73;98496.19;5030474;27;96777;-68
2023/12/22 08:12:56;;;;;;;7.15;1.20;;;;;;;5.53;82.58;98492.31;5027223;27;97327;-69
2023/12/22 08:15:23;;;;;;;4.07;0.95;;;;;;;5.59;81.02;98489.38;5030811;27;99309;-69
2023/12/22 08:17:51;;;;;;;7.05;0.70;;;;;;;5.26;81.16;98504.16;5022555;27;98131;-71
2023/12/22 08:20:19;;;;;;;6.20;0.65;;;;;;;5.40;82.54;98497.34;5022473;27;98825;-70
2023/12/22 08:22:46;;;;;;;3.08;0.52;;;;;;;5.29;82.16;98498.78;5020244;27;99395;-71
2023/12/22 08:25:13;;;;;;;4.43;0.40;;;;;;;5.54;81.59;98523.69;5023521;27;100775;-71
2023/12/22 08:27:39;;;;;;;7.63;0.80;;;;;;;6.10;79.60;98534.84;5021380;27;99629;-70
2023/12/22 08:30:07;;;;;;;2.97;0.60;;;;;;;5.52;81.04;98532.53;5021250;27;96865;-70
2023/12/22 08:32:34;;;;;;;2.17;0.52;;;;;;;5.60;82.96;98552.19;5021086;27;99301;-70
2023/12/22 08:35:00;;;;;;;4.97;0.88;;;;;;;5.66;82.02;98539.69;5021242;27;98928;-70
2023/12/22 08:37:26;;;;;;;4.15;0.77;;;;;;;5.97;79.80;98550.38;5026717;27;99561;-70
2023/12/22 08:39:54;;;;;;;12.15;1.08;;;;;;;6.18;80.46;98543.16;5027938;27;97025;-69
2023/12/22 08:42:22;;;;;;;3.10;0.75;;;;;;;5.17;83.21;98552.63;5029242;27;97356;-70
2023/12/22 08:44:48;;;;;;;4.90;0.73;;;;;;;5.22;82.92;98572.41;5023265;27;98889;-71
2023/12/22 08:47:15;;;;;;;7.95;1.15;;;;;;;5.52;81.81;98569.22;5021977;27;99716;-70
2023/12/22 08:49:41;;;;;;;4.78;1.00;;;;;;;5.78;80.27;98563.50;5024112;27;97844;-70
2023/12/22 08:52:08;;;;;;;9.80;1.00;;;;;;;5.42;81.11;98567.97;5027845;27;97431;-70
2023/12/22 08:54:35;;;;;;;13.27;1.20;;;;;;;5.50;79.60;98556.22;5023106;27;98837;-70
2023/12/22 08:57:02;;;;;;;9.95;1.35;;;;;;;5.98;78.06;98576.50;5030196;27;101814;-70
2023/12/22 08:59:29;;;;;;;11.57;2.60;;;;;;;6.00;76.35;98555.44;5022218;27;97056;-70
2023/12/22 09:01:55;;;;;;;10.95;1.23;;;;;;;5.44;79.99;98568.75;5022326;27;96883;-70
2023/12/22 09:04:22;;;;;;;8.20;0.90;;;;;;;6.23;77.37;98580.50;5021417;27;100009;-71
2023/12/22 09:06:48;;;;;;;7.65;1.02;;;;;;;6.72;74.02;98571.69;5023396;27;98839;-70
2023/12/22 09:09:15;;;;;;;14.30;1.70;;;;;;;6.16;76.12;98572.09;5018921;27;97424;-70
2023/12/22 09:11:41;;;;;;;12.07;1.42;;;;;;;5.86;78.04;98571.84;5028913;27;96803;-71
2023/12/22 09:14:09;;;;;;;14.52;1.38;;;;;;;5.69;79.11;98584.97;5021038;27;99216;-71
2023/12/22 09:16:36;;;;;;;11.60;1.42;;;;;;;5.87;78.69;98594.53;5026990;27;99650;-71
2023/12/22 09:19:03;;;;;;;8.43;1.35;;;;;;;6.00;77.32;98592.16;5026251;27;97336;-72
2023/12/22 09:21:30;;;;;;;6.20;1.27;;;;;;;5.70;77.96;98604.16;5026761;27;97005;-71
2023/12/22 09:23:56;;;;;;;14.05;1.55;;;;;;;6.20;75.51;98606.84;5018476;27;98919;-72
2023/12/22 09:26:23;;;;;;;14.23;1.73;;;;;;;6.35;74.77;98592.97;5024622;27;99374;-69
2023/12/22 09:28:49;;;;;;;14.00;1.63;;;;;;;6.53;73.18;98604.25;5027074;27;97140;-71
2023/12/22 09:31:17;;;;;;;8.57;1.30;;;;;;;6.44;72.89;98612.59;5025267;27;97303;-69
2023/12/22 09:33:44;;;;;;;13.98;1.40;;;;;;;7.17;70.85;98612.13;5022519;28;100156;-70
2023/12/22 09:36:11;;;;;;;13.98;3.33;;;;;;;7.01;70.70;98620.00;5027695;27;98913;-70
2023/12/22 09:38:38;;;;;;;7.85;1.83;;;;;;;6.76;68.47;98599.47;5024803;27;98697;-70
2023/12/22 09:41:05;;;;;;;13.65;1.83;;;;;;;6.83;69.70;98625.41;5027309;27;97628;-70
2023/12/22 09:43:35;;;;;;;12.98;1.30;;;;;;;6.71;69.63;98635.63;5028078;27;98888;-70
2023/12/22 09:46:03;;;;;;;16.45;1.67;;;;;;;6.55;69.66;98636.50;5021708;27;99643;-71
2023/12/22 09:48:31;;;;;;;11.90;1.52;;;;;;;6.78;70.21;98641.38;5028389;27;96935;-71
2023/12/22 09:51:00;;;;;;;12.57;1.52;;;;;;;7.45;67.07;98635.06;5031050;27;97491;-71
2023/12/22 09:53:30;;;;;;;19.05;2.35;;;;;;;6.24;71.44;98651.19;5028396;27;98147;-72
2023/12/22 09:55:59;;;;;;;11.45;1.55;;;;;;;6.76;69.64;98659.84;5024058;27;97797;-71
2023/12/22 09:58:25;;;;;;;12.07;1.65;;;;;;;7.01;68.69;98666.41;5024995;27;96922;-71
2023/12/22 10:00:53;;;;;;;10.23;1.42;;;;;;;6.83;69.53;98651.66;5026874;27;99108;-71
2023/12/22 10:03:21;;;;;;;12.73;1.77;;;;;;;7.12;68.75;98658.81;5018807;27;98808;-71
2023/12/22 10:05:49;;;;;;;13.63;1.70;;;;;;;7.39;67.69;98677.47;5025979;27;99341;-71
2023/12/22 10:08:15;;;;;;;16.95;2.75;;;;;;;7.03;68.33;98651.41;5024440;27;100098;-71
2023/12/22 10:10:43;;;;;;;22.85;6.43;;;;;;;7.05;68.58;98666.16;5025048;27;96836;-71
2023/12/22 10:13:10;;;;;;;14.05;2.28;;;;;;;7.05;68.04;98666.16;5023738;27;98877;-71
2023/12/22 10:15:40;;;;;;;17.00;2.30;;;;;;;7.22;66.94;98674.91;5027582;27;98801;-71
2023/12/22 10:18:07;;;;;;;20.52;1.73;;;;;;;7.03;67.41;98661.91;5024142;27;96746;-71
2023/12/22 10:20:33;;;;;;;14.50;1.90;;;;;;;6.55;68.53;98679.34;5027019;27;98035;-70
2023/12/22 10:23:01;;;;;;;22.83;2.63;;;;;;;6.76;67.70;98661.63;5025658;27;99029;-70
2023/12/22 10:25:29;;;;;;;14.35;2.45;;;;;;;7.24;65.33;98645.00;5026831;27;100974;-73
2023/12/22 10:27:55;;;;;;;21.23;2.22;;;;;;;7.56;64.41;98651.94;5023341;27;97155;-71
2023/12/22 10:30:22;;;;;;;17.20;2.17;;;;;;;7.68;63.38;98657.44;5032002;27;97686;-71
2023/12/22 10:32:51;;;;;;;16.45;2.45;;;;;;;7.86;63.41;98659.88;5034172;27;98223;-70
2023/12/22 10:35:18;;;;;;;26.73;3.55;;;;;;;7.82;62.37;98650.44;5022553;27;98938;-70
2023/12/22 10:37:46;;;;;;;20.50;2.05;;;;;;;6.96;65.28;98657.91;5027585;27;96789;-70
2023/12/22 10:40:14;;;;;;;15.45;3.17;;;;;;;6.72;66.48;98649.59;5029953;27;97111;-70
2023/12/22 10:42:41;;;;;;;18.33;2.10;;;;;;;7.20;65.31;98653.97;5028325;27;99183;-71
2023/12/22 10:45:08;;;;;;;12.00;1.70;;;;;;;6.66;66.94;98650.75;5030303;27;99621;-71
2023/12/22 10:47:35;;;;;;;13.48;1.80;;;;;;;6.59;67.72;98664.28;5026298;27;96753;-71
2023/12/22 10:50:04;;;;;;;16.02;2.42;;;;;;;6.88;66.77;98660.97;5027150;27;96820;-71
2023/12/22 10:52:30;;;;;;;19.45;2.17;;;;;;;7.06;66.38;98643.38;5029107;27;99351;-72
2023/12/22 10:55:00;;;;;;;19.55;2.70;;;;;;;7.30;64.80;98668.28;5029981;27;99087;-71
2023/12/22 10:57:28;;;;;;;19.38;2.80;;;;;;;6.95;65.96;98654.47;5026879;27;98563;-71
2023/12/22 10:59:58;;;;;;;18.20;2.00;;;;;;;7.32;64.74;98671.69;5030923;27;96817;-72
2023/12/22 11:02:28;;;;;;;17.92;1.90;;;;;;;8.02;62.26;98668.56;5030759;27;99314;-72
2023/12/22 11:04:59;;;;;;;29.42;3.03;;;;;;;7.46;63.75;98657.78;5028784;27;100535;-70
2023/12/22 11:07:26;;;;;;;11.85;1.50;;;;;;;7.55;62.73;98671.25;5032000;27;96724;-71
2023/12/22 11:09:56;;;;;;;23.58;1.77;;;;;;;7.89;61.76;98677.22;5030807;27;97945;-71
2023/12/22 11:12:24;;;;;;;11.70;1.50;;;;;;;6.99;64.13;98661.25;5031121;27;98857;-71
2023/12/22 11:14:55;;;;;;;12.63;2.17;;;;;;;7.12;63.58;98658.81;5027671;27;97737;-72
2023/12/22 11:17:23;;;;;;;10.90;1.90;;;;;;;7.85;61.42;98686.25;5024496;27;98721;-70
2023/12/22 11:19:50;;;;;;;10.63;1.92;;;;;;;8.07;60.46;98676.19;5026691;27;97640;-71
2023/12/22 11:22:17;;;;;;;17.70;2.38;;;;;;;8.10;60.04;98660.22;5031018;27;98959;-70
2023/12/22 11:24:47;;;;;;;13.68;1.83;;;;;;;7.07;63.96;98673.97;5024078;27;98286;-70
2023/12/22 11:27:14;;;;;;;10.15;1.52;;;;;;;7.05;64.24;98675.81;5032211;27;97491;-71
2023/12/22 11:29:42;;;;;;;25.92;2.55;;;;;;;7.77;62.08;98673.53;5027724;27;96887;-71
2023/12/22 11:32:11;;;;;;;15.70;2.53;;;;;;;7.15;62.76;98669.16;5030188;27;99505;-71
2023/12/22 11:34:39;;;;;;;15.50;2.20;;;;;;;6.97;63.91;98681.47;5019719;27;97619;-70
2023/12/22 11:37:06;;;;;;;17.88;1.67;;;;;;;6.85;64.28;98674.25;5030543;27;97322;-70